Time;durP1;ratioP1;P1;durP2;ratioP2;P2;SDS_P1;SDS_P2;PMS_P1;PMS_P2;Temp;Humidity;BMP_temperature;BMP_pressure;BME280_temperature;BME280_humidity;BME280_pressure;Samples;Min_cycle;Max_cycle;Signal;HPM_P1;HPM_P2
2021/01/25 00:00:25;;;;;;;35.10;8.73;;;1.40;99.90;;;;;;4993774;28;20588;-69
2021/01/25 00:02:52;;;;;;;24.90;7.40;;;1.40;99.90;;;;;;4993957;28;20574;-69
2021/01/25 00:05:18;;;;;;;26.03;7.30;;;1.40;99.90;;;;;;5010352;28;20236;-69
2021/01/25 00:07:45;;;;;;;17.63;6.50;;;1.40;99.90;;;;;;5013122;28;20199;-69
2021/01/25 00:10:12;;;;;;;23.73;7.20;;;1.40;99.90;;;;;;5029767;28;20218;-69
2021/01/25 00:12:39;;;;;;;33.37;7.63;;;1.50;99.90;;;;;;5040718;28;20567;-69
2021/01/25 00:15:08;;;;;;;22.53;7.00;;;1.40;99.90;;;;;;5052746;28;20232;-69
2021/01/25 00:17:34;;;;;;;26.87;7.10;;;1.50;99.90;;;;;;5033031;28;20276;-69
2021/01/25 00:20:01;;;;;;;22.93;6.63;;;1.50;99.90;;;;;;5033037;28;20206;-69
2021/01/25 00:22:28;;;;;;;22.67;6.63;;;1.50;99.90;;;;;;5032832;28;20214;-69
2021/01/25 00:24:54;;;;;;;17.67;5.27;;;1.50;99.90;;;;;;5032639;28;20210;-69
2021/01/25 00:27:21;;;;;;;16.73;5.27;;;1.50;99.90;;;;;;5033008;28;20212;-69
2021/01/25 00:29:48;;;;;;;16.80;5.70;;;1.50;99.90;;;;;;5012616;28;20763;-69
2021/01/25 00:32:15;;;;;;;19.90;5.80;;;1.50;99.90;;;;;;5012764;28;20207;-69
2021/01/25 00:34:42;;;;;;;21.77;7.03;;;1.50;99.90;;;;;;5013090;28;20199;-69
2021/01/25 00:37:08;;;;;;;20.23;7.87;;;1.50;99.90;;;;;;5013417;28;20232;-69
2021/01/25 00:39:35;;;;;;;25.43;9.93;;;1.50;99.90;;;;;;5026486;28;20214;-69
2021/01/25 00:42:02;;;;;;;31.77;11.53;;;1.60;99.90;;;;;;4993194;28;20508;-69
2021/01/25 00:44:28;;;;;;;23.93;10.87;;;1.50;99.90;;;;;;4992936;28;20215;-69
2021/01/25 00:46:55;;;;;;;25.17;10.60;;;1.50;99.90;;;;;;5009260;28;20286;-69
2021/01/25 00:49:22;;;;;;;26.53;10.10;;;1.50;99.90;;;;;;4996764;28;20701;-69
2021/01/25 00:51:49;;;;;;;21.37;8.80;;;1.60;99.90;;;;;;4993374;28;20266;-69
2021/01/25 00:54:18;;;;;;;17.67;7.70;;;1.50;99.90;;;;;;4935032;29;20229;-69
2021/01/25 00:56:48;;;;;;;22.40;7.80;;;1.50;99.90;;;;;;4934748;29;20210;-69
2021/01/25 00:59:15;;;;;;;16.47;6.27;;;1.60;99.90;;;;;;4934866;29;20664;-69
2021/01/25 01:01:42;;;;;;;15.37;6.00;;;1.50;99.90;;;;;;4915757;29;20683;-69
2021/01/25 01:04:08;;;;;;;21.73;6.37;;;1.60;99.90;;;;;;4915710;29;20209;-69
2021/01/25 01:06:36;;;;;;;20.23;6.93;;;1.60;99.90;;;;;;4924046;29;20220;-69
2021/01/25 01:09:03;;;;;;;25.90;8.47;;;1.50;99.90;;;;;;4954083;29;20239;-69
2021/01/25 01:11:30;;;;;;;26.40;8.70;;;1.50;99.90;;;;;;4954035;29;20201;-69
2021/01/25 01:13:57;;;;;;;26.87;9.30;;;1.60;99.90;;;;;;4953776;29;20686;-69
2021/01/25 01:16:23;;;;;;;25.23;9.07;;;1.50;99.90;;;;;;4926662;29;20305;-69
2021/01/25 01:18:50;;;;;;;31.63;9.93;;;1.50;99.90;;;;;;4939152;29;20714;-69
2021/01/25 01:21:17;;;;;;;24.90;9.30;;;1.50;99.90;;;;;;4954041;29;20213;-69
2021/01/25 01:23:44;;;;;;;28.30;9.30;;;1.50;99.90;;;;;;4953920;29;20579;-69
2021/01/25 01:26:11;;;;;;;24.77;9.07;;;1.50;99.90;;;;;;4954279;29;20212;-69
2021/01/25 01:28:37;;;;;;;34.90;9.90;;;1.50;99.90;;;;;;4934577;29;20225;-69
2021/01/25 01:31:04;;;;;;;60.33;14.23;;;1.50;99.90;;;;;;4942278;28;20729;-69
2021/01/25 01:33:31;;;;;;;73.33;17.23;;;1.40;99.90;;;;;;4949884;29;20205;-69
2021/01/25 01:35:57;;;;;;;78.27;17.03;;;1.50;99.90;;;;;;4953327;29;20675;-69
2021/01/25 01:38:24;;;;;;;76.90;16.20;;;1.50;99.90;;;;;;4933919;29;20234;-69
2021/01/25 01:40:51;;;;;;;68.67;14.83;;;1.50;99.90;;;;;;4934169;29;20242;-69
2021/01/25 01:43:18;;;;;;;75.70;15.47;;;1.50;99.90;;;;;;4934033;29;20208;-69
2021/01/25 01:45:45;;;;;;;53.33;12.27;;;1.50;99.90;;;;;;4933980;29;20197;-69
2021/01/25 01:48:11;;;;;;;54.60;12.77;;;1.50;99.90;;;;;;4933799;29;20232;-69
2021/01/25 01:50:38;;;;;;;51.73;12.80;;;1.40;99.90;;;;;;4934135;29;20218;-69
2021/01/25 01:53:05;;;;;;;44.13;11.87;;;1.50;99.90;;;;;;4934144;29;20217;-69
2021/01/25 01:55:31;;;;;;;38.80;9.43;;;1.40;99.90;;;;;;4953036;28;20204;-69
2021/01/25 01:58:00;;;;;;;41.10;10.60;;;1.40;99.90;;;;;;4972310;28;20261;-69
2021/01/25 02:00:27;;;;;;;44.13;11.67;;;1.40;99.90;;;;;;4972946;28;20255;-69
2021/01/25 02:02:53;;;;;;;39.80;10.50;;;1.50;99.90;;;;;;4972386;28;20711;-69
2021/01/25 02:05:21;;;;;;;30.57;8.43;;;1.50;99.90;;;;;;5021231;28;20621;-69
2021/01/25 02:07:51;;;;;;;33.00;8.97;;;1.50;99.90;;;;;;5038670;28;20216;-69
2021/01/25 02:10:20;;;;;;;21.60;6.80;;;1.40;99.90;;;;;;5072873;28;20253;-69
2021/01/25 02:12:48;;;;;;;20.37;6.70;;;1.50;99.90;;;;;;5073579;28;20193;-69
2021/01/25 02:15:17;;;;;;;19.80;6.03;;;1.50;99.90;;;;;;5053410;28;20236;-69
2021/01/25 02:17:47;;;;;;;14.83;5.67;;;1.50;99.90;;;;;;5073273;28;20228;-69
2021/01/25 02:20:22;;;;;;;13.93;4.93;;;1.50;99.90;;;;;;5015164;28;20755;-69
2021/01/25 02:23:05;;;;;;;12.83;4.90;;;1.50;99.90;;;;;;5015427;28;20194;-70
2021/01/25 02:25:45;;;;;;;14.37;4.70;;;1.40;99.90;;;;;;4996076;28;20207;-69
2021/01/25 02:28:13;;;;;;;8.57;3.80;;;1.40;99.90;;;;;;4976525;28;20271;-70
2021/01/25 02:30:40;;;;;;;14.40;5.17;;;1.40;99.90;;;;;;4975772;28;20207;-70
2021/01/25 02:33:08;;;;;;;12.27;4.57;;;1.40;99.90;;;;;;4976308;28;20212;-69
2021/01/25 02:35:36;;;;;;;11.83;4.77;;;1.40;99.90;;;;;;4976439;28;20211;-70
2021/01/25 02:38:07;;;;;;;13.03;4.70;;;1.40;99.90;;;;;;4975969;28;20245;-70
2021/01/25 02:40:34;;;;;;;11.07;4.23;;;1.40;99.90;;;;;;4937771;29;20296;-70
2021/01/25 02:43:02;;;;;;;8.03;3.93;;;1.40;99.90;;;;;;4937520;29;20209;-69
2021/01/25 02:45:29;;;;;;;12.60;4.73;;;1.40;99.90;;;;;;4940436;29;20213;-70
2021/01/25 02:47:57;;;;;;;12.60;4.70;;;1.40;99.90;;;;;;4956268;29;20231;-69
2021/01/25 02:50:23;;;;;;;10.07;4.37;;;1.40;99.90;;;;;;4961763;28;20613;-70
2021/01/25 02:52:50;;;;;;;12.83;5.07;;;1.40;99.90;;;;;;4975548;28;20204;-70
2021/01/25 02:55:17;;;;;;;10.37;4.20;;;1.50;99.90;;;;;;4975656;28;20211;-70
2021/01/25 02:57:45;;;;;;;13.33;4.80;;;1.50;99.90;;;;;;4975370;28;20559;-70
2021/01/25 03:00:13;;;;;;;10.73;4.73;;;1.50;99.90;;;;;;4941503;28;20202;-70
2021/01/25 03:02:41;;;;;;;13.70;4.77;;;1.50;99.90;;;;;;4971881;28;20310;-70
2021/01/25 03:05:08;;;;;;;12.27;4.97;;;1.50;99.90;;;;;;4975512;28;20204;-70
2021/01/25 03:07:35;;;;;;;10.67;4.90;;;1.50;99.90;;;;;;4975933;28;20212;-70
2021/01/25 03:10:04;;;;;;;15.90;5.63;;;1.50;99.90;;;;;;4975462;28;20275;-70
2021/01/25 03:12:31;;;;;;;14.20;5.27;;;1.50;99.90;;;;;;4975402;28;20311;-70
2021/01/25 03:14:58;;;;;;;13.70;5.73;;;1.50;99.90;;;;;;4975269;28;20203;-70
2021/01/25 03:17:25;;;;;;;16.43;5.67;;;1.50;99.90;;;;;;4979968;28;20208;-70
2021/01/25 03:19:52;;;;;;;13.60;6.30;;;1.50;99.90;;;;;;4995103;28;20203;-70
2021/01/25 03:22:19;;;;;;;16.60;6.10;;;1.50;99.90;;;;;;4995026;28;20199;-70
2021/01/25 03:24:46;;;;;;;14.30;6.00;;;1.50;99.90;;;;;;5029543;28;20237;-70
2021/01/25 03:27:13;;;;;;;12.67;5.43;;;1.50;99.90;;;;;;5033872;28;20652;-70
2021/01/25 03:29:39;;;;;;;11.17;5.40;;;1.50;99.90;;;;;;5068469;28;20248;-70
2021/01/25 03:32:06;;;;;;;17.37;5.90;;;1.50;99.90;;;;;;5074077;28;20205;-70
2021/01/25 03:34:32;;;;;;;13.93;5.50;;;1.50;99.90;;;;;;5073742;28;20205;-70
2021/01/25 03:37:00;;;;;;;14.53;5.97;;;1.50;99.90;;;;;;5073535;28;20197;-70
2021/01/25 03:39:27;;;;;;;13.77;5.67;;;1.50;99.90;;;;;;5073621;28;20288;-70
2021/01/25 03:41:54;;;;;;;13.63;5.73;;;1.50;99.90;;;;;;5073938;28;20201;-70
2021/01/25 03:44:20;;;;;;;14.60;5.70;;;1.50;99.90;;;;;;5013692;28;20746;-70
2021/01/25 03:46:47;;;;;;;16.40;6.20;;;1.50;99.90;;;;;;5013796;28;20211;-70
2021/01/25 03:49:14;;;;;;;15.40;5.87;;;1.50;99.90;;;;;;5013894;28;20796;-70
2021/01/25 03:51:41;;;;;;;15.33;5.90;;;1.50;99.90;;;;;;5013490;28;20286;-70
2021/01/25 03:54:12;;;;;;;14.60;5.80;;;1.50;99.90;;;;;;5013464;28;20207;-70
2021/01/25 03:56:39;;;;;;;14.90;5.90;;;1.50;99.90;;;;;;5013445;28;20620;-69
2021/01/25 03:59:06;;;;;;;18.67;7.13;;;1.40;99.90;;;;;;5013468;28;20275;-70
2021/01/25 04:01:33;;;;;;;16.07;6.37;;;1.40;99.90;;;;;;5011008;28;20265;-70
2021/01/25 04:03:59;;;;;;;16.90;6.70;;;1.40;99.90;;;;;;4994150;28;20254;-70
2021/01/25 04:06:26;;;;;;;16.70;6.77;;;1.40;99.90;;;;;;4993878;28;20266;-70
2021/01/25 04:08:53;;;;;;;20.37;7.57;;;1.40;99.90;;;;;;4974096;28;20228;-70
2021/01/25 04:11:20;;;;;;;14.60;5.83;;;1.40;99.90;;;;;;4935677;29;20209;-70
2021/01/25 04:13:47;;;;;;;14.13;6.30;;;1.40;99.90;;;;;;4935782;29;20206;-69
2021/01/25 04:16:13;;;;;;;16.33;6.80;;;1.40;99.90;;;;;;4979709;28;20238;-70
2021/01/25 04:18:40;;;;;;;16.60;6.50;;;1.40;99.90;;;;;;4993808;28;20211;-70
2021/01/25 04:21:07;;;;;;;15.13;6.47;;;1.40;99.90;;;;;;4993360;28;20227;-69
2021/01/25 04:23:33;;;;;;;14.20;6.00;;;1.40;99.90;;;;;;4993293;28;20204;-69
2021/01/25 04:26:00;;;;;;;17.40;6.40;;;1.40;99.90;;;;;;4993383;28;20318;-69
2021/01/25 04:28:27;;;;;;;12.63;6.17;;;1.40;99.90;;;;;;4993134;28;20330;-69
2021/01/25 04:30:54;;;;;;;14.97;5.77;;;1.40;99.90;;;;;;4993204;28;20208;-69
2021/01/25 04:33:20;;;;;;;13.23;5.83;;;1.40;99.90;;;;;;4993245;28;20559;-69
2021/01/25 04:35:47;;;;;;;10.47;4.83;;;1.30;99.90;;;;;;4993204;28;20258;-69
2021/01/25 04:38:14;;;;;;;12.57;4.93;;;1.30;99.90;;;;;;4993585;28;20562;-70
2021/01/25 04:40:40;;;;;;;11.57;5.50;;;1.30;99.90;;;;;;5008712;28;20689;-70
2021/01/25 04:43:08;;;;;;;11.67;5.20;;;1.30;99.90;;;;;;5045525;28;20193;-70
2021/01/25 04:45:35;;;;;;;12.80;4.77;;;1.30;99.90;;;;;;5032326;28;20301;-69
2021/01/25 04:48:02;;;;;;;12.60;5.07;;;1.30;99.90;;;;;;5032431;28;20206;-70
2021/01/25 04:50:30;;;;;;;12.83;5.37;;;1.30;99.90;;;;;;5032267;28;20225;-70
2021/01/25 04:52:57;;;;;;;11.57;4.80;;;1.30;99.90;;;;;;5032406;28;20540;-70
2021/01/25 04:55:25;;;;;;;13.97;5.93;;;1.30;99.90;;;;;;5032711;28;20198;-70
2021/01/25 04:57:53;;;;;;;12.57;5.10;;;1.40;99.90;;;;;;5032258;28;20241;-69
2021/01/25 05:00:21;;;;;;;15.20;5.53;;;1.40;99.90;;;;;;5012072;28;20203;-69
2021/01/25 05:02:48;;;;;;;16.57;5.77;;;1.40;99.90;;;;;;5012525;28;20257;-70
2021/01/25 05:05:15;;;;;;;13.77;6.10;;;1.50;99.90;;;;;;4972889;28;20204;-70
2021/01/25 05:07:42;;;;;;;17.37;6.40;;;1.50;99.90;;;;;;4973385;28;20213;-70
2021/01/25 05:10:10;;;;;;;15.30;6.23;;;1.60;99.90;;;;;;4973519;28;20311;-70
2021/01/25 05:12:45;;;;;;;14.40;6.10;;;1.60;99.90;;;;;;4973233;28;20204;-70
2021/01/25 05:15:24;;;;;;;15.63;6.13;;;1.70;99.90;;;;;;4944255;29;20205;-70
2021/01/25 05:17:52;;;;;;;13.03;6.03;;;1.10;99.90;;;;;;4935362;29;20202;-70
2021/01/25 05:20:23;;;;;;;17.40;6.00;;;1.70;99.90;;;;;;4935040;29;20210;-70
2021/01/25 05:22:50;;;;;;;19.17;7.37;;;1.70;99.90;;;;;;4934625;29;20241;-70
2021/01/25 05:25:28;;;;;;;19.17;7.60;;;1.70;99.90;;;;;;4934627;29;20205;-70
2021/01/25 05:27:58;;;;;;;21.43;7.90;;;1.70;99.90;;;;;;4938195;28;20691;-70
2021/01/25 05:30:26;;;;;;;17.10;7.30;;;1.70;99.90;;;;;;4977392;28;20232;-70
2021/01/25 05:32:55;;;;;;;24.37;8.50;;;1.80;99.90;;;;;;4973166;28;20200;-70
2021/01/25 05:35:24;;;;;;;22.60;7.90;;;1.80;99.90;;;;;;4972598;28;20208;-70
2021/01/25 05:37:52;;;;;;;24.67;8.47;;;1.80;99.90;;;;;;4972927;28;20520;-70
2021/01/25 05:40:22;;;;;;;21.40;8.37;;;1.80;99.90;;;;;;4972664;28;20239;-70
2021/01/25 05:42:49;;;;;;;20.93;7.97;;;1.80;99.90;;;;;;4983002;28;20231;-70
2021/01/25 05:45:16;;;;;;;21.50;8.00;;;1.80;99.90;;;;;;4956962;28;20208;-70
2021/01/25 05:47:44;;;;;;;20.77;7.77;;;1.80;99.90;;;;;;4992412;28;20545;-70
2021/01/25 05:50:24;;;;;;;21.53;7.70;;;1.80;99.90;;;;;;4991668;28;20262;-70
2021/01/25 05:52:52;;;;;;;21.83;7.60;;;1.80;99.90;;;;;;4991645;28;20200;-70
2021/01/25 05:55:19;;;;;;;19.47;7.77;;;1.90;99.90;;;;;;4992406;28;20295;-70
2021/01/25 05:57:46;;;;;;;15.83;7.23;;;1.80;99.90;;;;;;4992396;28;20510;-70
2021/01/25 06:00:13;;;;;;;14.93;6.23;;;1.90;99.90;;;;;;4991941;28;20200;-70
2021/01/25 06:02:46;;;;;;;15.07;6.57;;;1.90;99.90;;;;;;4933947;29;20261;-70
2021/01/25 06:05:20;;;;;;;15.43;6.30;;;1.90;99.90;;;;;;4934045;29;20592;-68
2021/01/25 06:07:50;;;;;;;15.27;6.23;;;2.00;99.90;;;;;;4935210;29;20210;-68
2021/01/25 06:10:23;;;;;;;17.63;6.50;;;2.00;99.90;;;;;;4953132;29;20359;-69
2021/01/25 06:12:58;;;;;;;12.67;5.83;;;2.10;99.90;;;;;;4895948;29;20207;-69
2021/01/25 06:15:29;;;;;;;16.67;6.60;;;2.00;99.90;;;;;;4898918;29;20234;-69
2021/01/25 06:17:58;;;;;;;13.73;6.00;;;2.10;99.90;;;;;;4895989;29;20207;-69
2021/01/25 06:20:29;;;;;;;16.70;6.10;;;2.10;99.90;;;;;;4902764;29;20734;-69
2021/01/25 06:22:56;;;;;;;16.73;6.63;;;2.10;99.90;;;;;;4933767;29;20247;-69
2021/01/25 06:25:25;;;;;;;16.60;7.10;;;2.10;99.90;;;;;;4934337;29;20206;-69
2021/01/25 06:27:55;;;;;;;15.20;6.30;;;2.10;99.90;;;;;;4933981;29;20691;-69
2021/01/25 06:30:25;;;;;;;13.43;6.27;;;2.10;99.90;;;;;;4877738;29;20227;-69
2021/01/25 06:32:54;;;;;;;13.40;6.53;;;2.10;99.90;;;;;;4883429;29;20226;-69
2021/01/25 06:35:21;;;;;;;14.83;7.07;;;2.10;99.90;;;;;;4919844;29;21100;-69
2021/01/25 06:37:54;;;;;;;17.60;7.90;;;2.10;99.90;;;;;;4952936;28;20205;-69
2021/01/25 06:40:25;;;;;;;13.23;6.77;;;2.10;99.90;;;;;;4952839;29;20293;-69
2021/01/25 06:42:53;;;;;;;13.27;6.00;;;2.10;99.90;;;;;;4935364;29;20201;-69
2021/01/25 06:45:24;;;;;;;14.60;6.37;;;2.10;99.90;;;;;;4952948;29;20276;-69
2021/01/25 06:47:51;;;;;;;16.43;7.00;;;2.10;99.90;;;;;;4972769;28;20205;-69
2021/01/25 06:50:19;;;;;;;15.33;6.77;;;2.10;99.90;;;;;;4971874;28;20236;-69
2021/01/25 06:52:49;;;;;;;17.53;7.97;;;2.10;99.90;;;;;;4971199;28;20236;-69
2021/01/25 06:55:17;;;;;;;19.90;8.63;;;2.20;99.90;;;;;;4933653;29;20214;-69
2021/01/25 06:57:46;;;;;;;20.17;8.67;;;2.20;99.90;;;;;;4933508;29;20210;-69
2021/01/25 07:00:14;;;;;;;17.00;8.03;;;2.20;99.90;;;;;;4933485;29;20221;-69
2021/01/25 07:02:57;;;;;;;21.67;9.03;;;2.20;99.90;;;;;;4933756;29;20210;-69
2021/01/25 07:05:28;;;;;;;17.23;7.97;;;2.20;99.90;;;;;;4899356;29;20214;-69
2021/01/25 07:08:20;;;;;;;21.03;8.73;;;2.20;99.90;;;;;;4909494;29;20210;-69
2021/01/25 07:11:06;;;;;;;16.93;8.17;;;2.20;99.90;;;;;;4918327;29;20278;-69
2021/01/25 07:13:35;;;;;;;17.27;8.43;;;2.20;99.90;;;;;;4936894;29;20575;-69
2021/01/25 07:16:02;;;;;;;19.70;8.70;;;2.20;99.90;;;;;;4936943;29;20226;-69
2021/01/25 07:18:30;;;;;;;14.00;6.97;;;2.20;99.90;;;;;;4944000;29;20201;-69
2021/01/25 07:20:58;;;;;;;16.17;7.97;;;2.20;99.90;;;;;;4977435;28;20796;-69
2021/01/25 07:23:26;;;;;;;16.73;9.40;;;2.20;99.90;;;;;;4994712;28;20212;-69
2021/01/25 07:25:54;;;;;;;16.67;9.20;;;2.20;99.90;;;;;;4994703;28;20278;-69
2021/01/25 07:28:22;;;;;;;20.67;9.40;;;2.30;99.90;;;;;;4975506;28;20566;-69
2021/01/25 07:30:49;;;;;;;17.90;8.63;;;2.20;99.90;;;;;;4946655;28;20202;-69
2021/01/25 07:33:17;;;;;;;16.37;8.80;;;2.20;99.90;;;;;;4942718;29;20201;-69
2021/01/25 07:35:44;;;;;;;17.03;7.70;;;2.20;99.90;;;;;;4959624;28;20660;-69
2021/01/25 07:38:10;;;;;;;15.87;8.13;;;2.30;99.90;;;;;;4994668;28;20207;-69
2021/01/25 07:40:37;;;;;;;18.60;7.97;;;2.30;99.90;;;;;;4994396;28;20200;-69
2021/01/25 07:43:05;;;;;;;19.37;9.43;;;2.30;99.90;;;;;;4994592;28;20737;-69
2021/01/25 07:45:33;;;;;;;17.57;8.27;;;2.30;99.90;;;;;;5011890;28;20203;-69
2021/01/25 07:48:00;;;;;;;16.43;7.93;;;2.30;99.90;;;;;;5013768;28;20734;-69
2021/01/25 07:50:27;;;;;;;17.80;7.90;;;2.30;99.90;;;;;;5014291;28;20223;-69
2021/01/25 07:53:00;;;;;;;16.60;7.90;;;2.30;99.90;;;;;;4993897;28;20207;-69
2021/01/25 07:55:28;;;;;;;17.33;7.90;;;2.30;99.90;;;;;;4994208;28;20642;-69
2021/01/25 07:58:05;;;;;;;18.57;8.43;;;2.20;99.90;;;;;;4994452;28;20235;-69
2021/01/25 08:00:32;;;;;;;15.47;7.83;;;2.30;99.90;;;;;;4994515;28;20199;-69
2021/01/25 08:03:06;;;;;;;16.83;8.00;;;2.30;99.90;;;;;;4994198;28;20203;-69
2021/01/25 08:05:33;;;;;;;19.23;9.10;;;2.30;99.90;;;;;;4994445;28;20621;-69
2021/01/25 08:08:03;;;;;;;18.70;8.77;;;2.30;99.90;;;;;;4993734;28;20226;-69
2021/01/25 08:10:31;;;;;;;17.43;8.57;;;2.30;99.90;;;;;;5009554;28;20280;-68
2021/01/25 08:13:00;;;;;;;16.83;8.17;;;2.30;99.90;;;;;;5033048;28;20206;-70
2021/01/25 08:15:33;;;;;;;20.37;9.50;;;2.30;99.90;;;;;;5024451;28;20230;-68
2021/01/25 08:18:06;;;;;;;19.17;9.07;;;2.30;99.90;;;;;;5013992;28;20634;-68
2021/01/25 08:20:37;;;;;;;17.63;9.47;;;2.30;99.90;;;;;;5013402;28;20203;-68
2021/01/25 08:23:08;;;;;;;18.67;9.23;;;2.30;99.90;;;;;;5016336;28;20590;-68
2021/01/25 08:25:35;;;;;;;19.47;9.63;;;2.30;99.90;;;;;;5032876;28;20589;-68
2021/01/25 08:28:05;;;;;;;18.13;9.20;;;2.30;99.90;;;;;;5033069;28;20202;-68
2021/01/25 08:30:37;;;;;;;22.83;10.87;;;2.40;99.90;;;;;;5032957;28;20206;-68
2021/01/25 08:33:05;;;;;;;20.43;10.50;;;2.30;99.90;;;;;;5033228;28;20233;-68
2021/01/25 08:35:37;;;;;;;18.27;9.63;;;2.40;99.90;;;;;;5032869;28;20194;-68
2021/01/25 08:38:28;;;;;;;21.00;9.80;;;2.40;99.90;;;;;;5032953;28;20365;-68
2021/01/25 08:40:56;;;;;;;19.00;10.30;;;2.40;99.90;;;;;;5065052;28;20680;-69
2021/01/25 08:43:27;;;;;;;18.23;9.23;;;2.40;99.90;;;;;;5093236;28;20192;-69
2021/01/25 08:46:06;;;;;;;19.07;9.97;;;2.40;99.90;;;;;;5092606;28;20696;-69
2021/01/25 08:48:33;;;;;;;22.93;10.63;;;2.50;99.90;;;;;;5086814;28;20193;-69
2021/01/25 08:51:11;;;;;;;25.33;11.83;;;2.50;99.90;;;;;;5072198;28;20223;-69
2021/01/25 08:53:38;;;;;;;25.80;12.70;;;2.50;99.90;;;;;;5052266;28;20200;-69
2021/01/25 08:56:16;;;;;;;24.27;12.47;;;2.50;99.90;;;;;;5052587;28;20210;-69
2021/01/25 08:58:43;;;;;;;23.87;12.27;;;2.50;99.90;;;;;;5052598;28;20689;-69
2021/01/25 09:01:16;;;;;;;24.83;12.00;;;2.50;99.90;;;;;;5052001;28;20206;-69
2021/01/25 09:03:43;;;;;;;28.10;12.97;;;2.50;99.90;;;;;;5052231;28;20205;-69
2021/01/25 09:06:11;;;;;;;27.07;12.57;;;2.60;99.90;;;;;;5051967;28;20302;-69
2021/01/25 09:08:38;;;;;;;24.50;12.50;;;2.60;99.90;;;;;;5012569;28;20305;-69
2021/01/25 09:11:06;;;;;;;26.13;11.83;;;2.60;99.90;;;;;;5031965;28;20202;-69
2021/01/25 09:13:33;;;;;;;21.93;11.00;;;2.60;99.90;;;;;;4993024;28;20199;-70
2021/01/25 09:16:00;;;;;;;29.17;13.87;;;2.60;99.90;;;;;;4953494;28;20591;-69
2021/01/25 09:18:27;;;;;;;26.40;13.33;;;2.60;99.90;;;;;;4954157;28;20272;-69
2021/01/25 09:20:54;;;;;;;32.10;14.73;;;2.60;99.90;;;;;;4954006;28;20212;-69
2021/01/25 09:23:21;;;;;;;31.03;14.10;;;2.60;99.90;;;;;;4963425;28;20312;-69
2021/01/25 09:25:48;;;;;;;31.17;14.00;;;2.50;99.90;;;;;;4972506;28;20603;-69
2021/01/25 09:28:15;;;;;;;23.07;11.93;;;2.50;99.90;;;;;;4972870;28;20196;-71
2021/01/25 09:30:42;;;;;;;31.13;14.10;;;2.50;99.90;;;;;;4973219;28;20235;-70
2021/01/25 09:33:09;;;;;;;29.77;14.40;;;2.50;99.90;;;;;;4953762;28;20738;-69
2021/01/25 09:35:36;;;;;;;29.40;14.27;;;2.50;99.90;;;;;;4972595;28;20204;-69
2021/01/25 09:38:03;;;;;;;32.43;14.00;;;2.50;99.90;;;;;;4953231;28;20220;-69
2021/01/25 09:40:33;;;;;;;23.90;11.93;;;2.40;99.90;;;;;;4953600;29;20718;-69
2021/01/25 09:43:00;;;;;;;28.90;12.17;;;2.40;99.90;;;;;;4953428;28;20201;-69
2021/01/25 09:45:27;;;;;;;29.90;14.20;;;2.50;99.90;;;;;;4953506;29;20220;-69
2021/01/25 09:47:53;;;;;;;34.90;16.30;;;2.50;99.90;;;;;;4970064;28;20257;-69
2021/01/25 09:50:20;;;;;;;34.97;15.63;;;2.40;99.90;;;;;;4972587;28;20240;-69
2021/01/25 09:52:48;;;;;;;31.70;14.80;;;2.30;99.90;;;;;;4972574;28;20299;-69
2021/01/25 09:55:17;;;;;;;34.37;16.10;;;2.20;99.90;;;;;;4972569;28;20336;-70
2021/01/25 09:57:44;;;;;;;33.43;15.03;;;2.20;99.90;;;;;;4972608;28;20200;-69
2021/01/25 10:00:12;;;;;;;24.83;12.37;;;2.10;99.90;;;;;;4933944;29;20241;-70
2021/01/25 10:02:39;;;;;;;25.53;11.73;;;2.00;99.90;;;;;;4917303;29;20288;-69
2021/01/25 10:05:07;;;;;;;24.67;11.13;;;2.00;99.90;;;;;;4929969;29;20656;-69
2021/01/25 10:07:35;;;;;;;22.03;11.83;;;2.00;99.90;;;;;;4951164;29;20584;-69
2021/01/25 10:10:05;;;;;;;28.13;12.20;;;2.00;99.90;;;;;;4988278;28;20226;-69
2021/01/25 10:12:32;;;;;;;22.87;10.90;;;2.00;99.90;;;;;;4991941;28;20234;-70
2021/01/25 10:14:59;;;;;;;22.37;10.40;;;2.00;99.90;;;;;;4991517;28;20204;-69
2021/01/25 10:17:29;;;;;;;19.00;9.57;;;2.10;99.90;;;;;;4934223;29;20205;-69
2021/01/25 10:19:55;;;;;;;17.47;9.83;;;2.10;99.90;;;;;;4933916;29;20206;-68
2021/01/25 10:22:22;;;;;;;22.77;11.47;;;2.20;99.90;;;;;;4933683;29;20213;-69
2021/01/25 10:24:49;;;;;;;21.60;10.37;;;2.30;99.90;;;;;;4914761;29;20207;-69
2021/01/25 10:27:16;;;;;;;20.63;10.57;;;2.30;99.90;;;;;;4914894;29;20265;-69
2021/01/25 10:29:43;;;;;;;23.43;10.53;;;2.40;99.90;;;;;;4931607;29;20273;-69
2021/01/25 10:32:10;;;;;;;21.10;9.53;;;2.40;99.90;;;;;;4968811;28;20312;-69
2021/01/25 10:34:36;;;;;;;19.60;9.50;;;2.50;99.90;;;;;;4953353;28;20205;-69
2021/01/25 10:37:03;;;;;;;19.40;9.03;;;2.50;99.90;;;;;;4970421;28;20512;-69
2021/01/25 10:39:30;;;;;;;21.60;10.50;;;2.60;99.90;;;;;;4955877;29;20579;-69
2021/01/25 10:41:56;;;;;;;23.63;10.03;;;2.60;99.90;;;;;;4956660;28;20205;-69
2021/01/25 10:44:24;;;;;;;20.33;10.37;;;2.70;99.90;;;;;;4956675;28;20591;-69
2021/01/25 10:46:50;;;;;;;20.87;9.67;;;2.70;99.90;;;;;;4956401;28;20547;-69
2021/01/25 10:49:17;;;;;;;21.17;9.87;;;2.80;99.90;;;;;;4956196;29;20229;-69
2021/01/25 10:51:44;;;;;;;21.70;10.40;;;2.80;99.90;;;;;;4956530;29;20201;-69
2021/01/25 10:54:10;;;;;;;18.43;9.63;;;2.80;99.90;;;;;;4956801;28;20224;-69
2021/01/25 10:56:37;;;;;;;22.57;9.57;;;2.80;99.90;;;;;;4972950;28;20215;-69
2021/01/25 10:59:05;;;;;;;19.43;9.03;;;2.80;99.90;;;;;;4975645;28;20667;-69
2021/01/25 11:01:33;;;;;;;19.13;9.30;;;2.80;99.90;;;;;;4991647;28;20203;-69
2021/01/25 11:04:00;;;;;;;20.40;10.13;;;2.80;99.90;;;;;;4995129;28;20294;-70
2021/01/25 11:06:27;;;;;;;18.90;9.67;;;2.80;99.90;;;;;;4995587;28;20641;-70
2021/01/25 11:08:53;;;;;;;20.30;9.83;;;2.80;99.90;;;;;;5027596;28;20198;-68
2021/01/25 11:11:20;;;;;;;23.33;10.90;;;2.70;99.90;;;;;;5030777;28;20198;-69
2021/01/25 11:13:47;;;;;;;22.43;11.23;;;2.70;99.90;;;;;;4995003;28;20214;-70
2021/01/25 11:16:13;;;;;;;23.07;11.20;;;2.60;99.90;;;;;;4994841;28;20692;-70
2021/01/25 11:18:41;;;;;;;20.83;10.57;;;2.50;99.90;;;;;;4995122;28;20316;-70
2021/01/25 11:21:07;;;;;;;17.33;9.30;;;2.60;99.90;;;;;;4995049;28;20215;-69
2021/01/25 11:23:34;;;;;;;14.83;8.57;;;2.50;99.90;;;;;;4991106;28;20212;-69
2021/01/25 11:26:01;;;;;;;20.50;9.63;;;2.60;99.90;;;;;;4975729;28;20208;-69
2021/01/25 11:28:27;;;;;;;16.70;8.70;;;2.60;99.90;;;;;;4960247;28;20566;-69
2021/01/25 11:30:54;;;;;;;17.07;8.30;;;2.50;99.90;;;;;;4975351;28;20300;-69
2021/01/25 11:33:21;;;;;;;17.00;8.83;;;2.50;99.90;;;;;;4975006;28;20232;-69
2021/01/25 11:35:48;;;;;;;16.10;8.07;;;2.50;99.90;;;;;;4955568;29;20236;-69
2021/01/25 11:38:15;;;;;;;12.93;7.20;;;2.40;99.90;;;;;;4955941;29;20317;-69
2021/01/25 11:40:42;;;;;;;12.03;6.60;;;2.30;99.90;;;;;;4988345;28;20251;-69
2021/01/25 11:43:08;;;;;;;12.43;7.10;;;2.30;99.90;;;;;;5010530;28;20681;-69
2021/01/25 11:45:37;;;;;;;10.03;5.97;;;2.30;99.90;;;;;;4974686;28;20247;-69
2021/01/25 11:48:05;;;;;;;10.93;6.60;;;2.30;99.90;;;;;;4974781;28;20200;-69
2021/01/25 11:50:31;;;;;;;12.33;6.30;;;2.30;99.90;;;;;;4974344;28;20276;-70
2021/01/25 11:52:59;;;;;;;11.50;6.33;;;2.30;99.90;;;;;;4975057;28;20200;-69
2021/01/25 11:55:26;;;;;;;13.67;6.30;;;2.30;99.90;;;;;;4974599;28;20256;-69
2021/01/25 11:57:52;;;;;;;14.70;7.93;;;2.30;99.90;;;;;;4974793;28;20607;-69
2021/01/25 12:00:20;;;;;;;12.93;6.73;;;2.30;99.90;;;;;;5007765;28;20211;-69
2021/01/25 12:02:46;;;;;;;13.57;7.27;;;2.20;99.90;;;;;;4993903;28;20725;-69
2021/01/25 12:05:13;;;;;;;17.37;7.83;;;2.20;99.90;;;;;;4993873;28;20200;-69
2021/01/25 12:07:40;;;;;;;13.73;7.47;;;2.20;99.90;;;;;;4994035;28;20211;-70
2021/01/25 12:10:08;;;;;;;12.13;7.10;;;2.20;99.90;;;;;;4993579;28;20215;-69
2021/01/25 12:12:35;;;;;;;13.33;6.67;;;2.20;99.90;;;;;;5002875;28;20341;-69
2021/01/25 12:15:01;;;;;;;13.90;7.07;;;2.10;99.90;;;;;;5032494;28;20195;-70
2021/01/25 12:17:28;;;;;;;12.50;6.73;;;2.10;99.90;;;;;;5067743;28;20208;-69
2021/01/25 12:19:55;;;;;;;13.80;6.70;;;2.10;99.90;;;;;;5072701;28;20231;-69
2021/01/25 12:22:22;;;;;;;14.07;6.70;;;2.10;99.90;;;;;;5073130;28;20207;-69
2021/01/25 12:24:48;;;;;;;13.57;6.43;;;2.10;99.90;;;;;;5072758;28;20208;-69
2021/01/25 12:27:16;;;;;;;13.53;6.70;;;2.10;99.90;;;;;;5072990;28;20540;-69
2021/01/25 12:29:43;;;;;;;13.17;6.67;;;2.10;99.90;;;;;;5012946;28;20250;-69
2021/01/25 12:32:09;;;;;;;11.10;6.53;;;2.10;99.90;;;;;;5013029;28;20211;-69
2021/01/25 12:34:37;;;;;;;15.00;7.27;;;2.10;99.90;;;;;;5046447;28;20228;-69
2021/01/25 12:37:05;;;;;;;11.13;6.40;;;2.10;99.90;;;;;;5012930;28;20214;-69
2021/01/25 12:39:31;;;;;;;12.83;7.27;;;2.10;99.90;;;;;;5013288;28;20262;-69
2021/01/25 12:41:58;;;;;;;12.63;6.53;;;2.10;99.90;;;;;;5012638;28;20206;-69
2021/01/25 12:44:25;;;;;;;16.73;8.07;;;2.10;99.90;;;;;;5013163;28;20207;-69
2021/01/25 12:46:55;;;;;;;12.53;6.57;;;2.10;99.90;;;;;;5012895;28;20313;-69
2021/01/25 12:49:23;;;;;;;12.03;6.83;;;2.10;99.90;;;;;;4973808;28;20238;-69